createdAt,value
2023-04-08T00:00:59.454Z,5.71
2023-04-08T00:02:01.240Z,5.72
2023-04-08T00:03:03.171Z,5.72
2023-04-08T00:04:05.044Z,5.72
2023-04-08T00:05:06.399Z,5.73
2023-04-08T00:06:08.154Z,5.74
2023-04-08T00:07:09.854Z,5.75
2023-04-08T00:08:11.607Z,5.76
2023-04-08T00:09:13.323Z,5.76
2023-04-08T00:10:15.075Z,5.78
2023-04-08T00:11:16.783Z,5.8
2023-04-08T00:12:18.537Z,5.81
2023-04-08T00:13:20.263Z,5.82
2023-04-08T00:14:22.009Z,5.83
2023-04-08T00:15:23.739Z,5.86
2023-04-08T00:16:25.455Z,5.88
2023-04-08T00:17:27.226Z,5.89
2023-04-08T00:18:28.931Z,5.9
2023-04-08T00:19:30.636Z,5.93
2023-04-08T00:20:32.383Z,5.95
2023-04-08T00:21:34.092Z,5.96
2023-04-08T00:22:35.839Z,5.98
2023-04-08T00:23:37.592Z,5.99
2023-04-08T00:24:39.314Z,6.01
2023-04-08T00:25:41.098Z,6.02
2023-04-08T00:26:42.771Z,6.02
2023-04-08T00:27:44.496Z,6.03
2023-04-08T00:28:46.250Z,6.04
2023-04-08T00:29:47.980Z,6.04
2023-04-08T00:30:49.763Z,6.06
2023-04-08T00:31:51.457Z,6.06
2023-04-08T00:32:53.201Z,6.07
2023-04-08T00:33:54.928Z,6.07
2023-04-08T00:34:56.656Z,6.08
2023-04-08T00:35:58.425Z,6.08
2023-04-08T00:37:00.110Z,6.09
2023-04-08T00:38:01.904Z,6.08
2023-04-08T00:39:03.575Z,6.09
2023-04-08T00:40:05.317Z,6.09
2023-04-08T00:41:07.062Z,6.09
2023-04-08T00:42:08.803Z,6.1
2023-04-08T00:43:10.512Z,6.1
2023-04-08T00:44:12.268Z,6.1
2023-04-08T00:45:14.003Z,6.1
2023-04-08T00:46:15.761Z,6.11
2023-04-08T00:47:17.453Z,6.12
2023-04-08T00:48:19.208Z,6.12
2023-04-08T00:49:20.932Z,6.11
2023-04-08T00:50:22.657Z,6.13
2023-04-08T00:51:24.406Z,6.13
2023-04-08T00:52:26.121Z,6.14
2023-04-08T00:53:27.880Z,6.14
2023-04-08T00:54:29.608Z,6.15
2023-04-08T00:55:31.331Z,6.16
2023-04-08T00:56:33.055Z,6.16
2023-04-08T00:57:34.774Z,6.15
2023-04-08T00:58:36.518Z,6.16
2023-04-08T00:59:38.270Z,6.16
2023-04-08T01:00:39.983Z,6.17
2023-04-08T01:01:41.773Z,6.18
2023-04-08T01:02:43.613Z,6.19
2023-04-08T01:03:45.505Z,6.18
2023-04-08T01:04:46.926Z,6.19
2023-04-08T01:05:48.649Z,6.19
2023-04-08T01:06:50.376Z,6.2
2023-04-08T01:07:52.274Z,6.21
2023-04-08T01:08:53.845Z,6.21
2023-04-08T01:09:55.620Z,6.21
2023-04-08T01:10:57.326Z,6.21
2023-04-08T01:11:59.072Z,6.21
2023-04-08T01:13:00.772Z,6.22
2023-04-08T01:14:02.520Z,6.22
2023-04-08T01:15:04.243Z,6.23
2023-04-08T01:16:06.080Z,6.22
2023-04-08T01:17:07.725Z,6.22
2023-04-08T01:18:09.437Z,6.23
2023-04-08T01:19:11.195Z,6.23
2023-04-08T01:20:12.921Z,6.22
2023-04-08T01:21:14.738Z,6.22
2023-04-08T01:22:16.391Z,6.22
2023-04-08T01:23:18.132Z,6.22
2023-04-08T01:24:19.870Z,6.21
2023-04-08T01:25:21.752Z,6.22
2023-04-08T01:26:23.354Z,6.22
2023-04-08T01:27:25.049Z,6.22
2023-04-08T01:28:27.013Z,6.21
2023-04-08T01:29:28.516Z,6.22
2023-04-08T01:30:30.247Z,6.21
2023-04-08T01:31:32.189Z,6.21
2023-04-08T01:32:33.732Z,6.21
2023-04-08T01:33:35.455Z,6.22
2023-04-08T01:34:37.203Z,6.21
2023-04-08T01:35:38.937Z,6.21
2023-04-08T01:36:40.654Z,6.21
2023-04-08T01:37:42.384Z,6.22
2023-04-08T01:38:44.139Z,6.21
2023-04-08T01:39:45.874Z,6.22
2023-04-08T01:40:47.630Z,6.21
2023-04-08T01:41:49.331Z,6.21
2023-04-08T01:42:51.087Z,6.21
2023-04-08T01:43:52.790Z,6.2
2023-04-08T01:44:54.529Z,6.2
2023-04-08T01:45:56.269Z,6.2
2023-04-08T01:46:58.050Z,6.2
2023-04-08T01:47:59.813Z,6.2
2023-04-08T01:49:01.442Z,6.19
2023-04-08T01:50:03.205Z,6.2
2023-04-08T01:51:05.077Z,6.19
2023-04-08T01:52:06.650Z,6.19
2023-04-08T01:53:08.373Z,6.19
2023-04-08T01:54:10.138Z,6.19
2023-04-08T01:55:11.864Z,6.19
2023-04-08T01:56:13.596Z,6.19
2023-04-08T01:57:15.326Z,6.19
2023-04-08T01:58:17.064Z,6.19
2023-04-08T01:59:18.780Z,6.2
2023-04-08T02:00:20.536Z,6.19
2023-04-08T02:01:22.285Z,6.19
2023-04-08T02:02:24.131Z,6.18
2023-04-08T02:03:25.928Z,6.18
2023-04-08T02:04:27.455Z,6.19
2023-04-08T02:05:29.145Z,6.19
2023-04-08T02:06:30.865Z,6.2
2023-04-08T02:07:32.653Z,6.19
2023-04-08T02:08:34.347Z,6.2
2023-04-08T02:09:36.100Z,6.2
2023-04-08T02:10:37.811Z,6.2
2023-04-08T02:11:39.543Z,6.21
2023-04-08T02:12:41.302Z,6.22
2023-04-08T02:13:43.014Z,6.23
2023-04-08T02:14:44.748Z,6.24
2023-04-08T02:15:46.495Z,6.24
2023-04-08T02:16:48.420Z,6.25
2023-04-08T02:17:50.030Z,6.26
2023-04-08T02:18:51.951Z,6.28
2023-04-08T02:19:53.401Z,6.28
2023-04-08T02:20:55.130Z,6.29
2023-04-08T02:21:56.882Z,6.29
2023-04-08T02:22:58.622Z,6.31
2023-04-08T02:24:02.035Z,6.3
2023-04-08T02:25:02.087Z,6.32
2023-04-08T02:26:03.827Z,6.32
2023-04-08T02:27:05.545Z,6.33
2023-04-08T02:28:07.301Z,6.33
2023-04-08T02:29:09.025Z,6.34
2023-04-08T02:30:10.730Z,6.34
2023-04-08T02:31:12.485Z,6.34
2023-04-08T02:32:14.204Z,6.34
2023-04-08T02:33:15.972Z,6.34
2023-04-08T02:34:17.708Z,6.34
2023-04-08T02:35:19.431Z,6.35
2023-04-08T02:36:21.153Z,6.34
2023-04-08T02:37:22.875Z,6.34
2023-04-08T02:38:24.620Z,6.34
2023-04-08T02:39:26.359Z,6.34
2023-04-08T02:40:28.122Z,6.34
2023-04-08T02:41:29.827Z,6.34
2023-04-08T02:42:31.563Z,6.33
2023-04-08T02:43:33.275Z,6.33
2023-04-08T02:44:35.168Z,6.33
2023-04-08T02:45:36.779Z,6.32
2023-04-08T02:46:38.598Z,6.33
2023-04-08T02:47:40.340Z,6.33
2023-04-08T02:48:41.941Z,6.33
2023-04-08T02:49:43.662Z,6.33
2023-04-08T02:50:45.409Z,6.33
2023-04-08T02:51:47.139Z,6.33
2023-04-08T02:52:48.896Z,6.32
2023-04-08T02:53:50.668Z,6.33
2023-04-08T02:54:52.352Z,6.32
2023-04-08T02:55:54.089Z,6.31
2023-04-08T02:56:55.811Z,6.31
2023-04-08T02:57:57.557Z,6.3
2023-04-08T02:58:59.262Z,6.3
2023-04-08T03:00:00.983Z,6.28
2023-04-08T03:01:02.858Z,6.28
2023-04-08T03:02:04.581Z,6.28
2023-04-08T03:03:06.303Z,6.27
2023-04-08T03:04:07.934Z,6.26
2023-04-08T03:05:09.700Z,6.25
2023-04-08T03:06:11.416Z,6.24
2023-04-08T03:07:13.152Z,6.23
2023-04-08T03:08:14.867Z,6.22
2023-04-08T03:09:16.602Z,6.2
2023-04-08T03:10:18.342Z,6.2
2023-04-08T03:11:20.080Z,6.18
2023-04-08T03:12:21.793Z,6.17
2023-04-08T03:13:23.536Z,6.16
2023-04-08T03:14:25.268Z,6.15
2023-04-08T03:15:26.997Z,6.14
2023-04-08T03:16:28.765Z,6.12
2023-04-08T03:17:30.514Z,6.1
2023-04-08T03:18:32.200Z,6.08
2023-04-08T03:19:33.934Z,6.05
2023-04-08T03:20:35.661Z,6.04
2023-04-08T03:21:37.385Z,6.02
2023-04-08T03:22:39.125Z,6
2023-04-08T03:23:40.872Z,5.98
2023-04-08T03:24:42.596Z,5.96
2023-04-08T03:25:44.324Z,5.93
2023-04-08T03:26:46.078Z,5.89
2023-04-08T03:27:47.814Z,5.86
2023-04-08T03:28:49.938Z,5.83
2023-04-08T03:29:51.260Z,5.8
2023-04-08T03:30:53.017Z,5.77
2023-04-08T03:31:54.773Z,5.74
2023-04-08T03:32:56.487Z,5.7
2023-04-08T03:33:58.216Z,5.66
2023-04-08T03:34:59.929Z,5.62
2023-04-08T03:36:01.685Z,5.58
2023-04-08T03:37:03.391Z,5.53
2023-04-08T03:38:05.137Z,5.5
2023-04-08T03:39:06.886Z,5.47
2023-04-08T03:40:08.600Z,5.44
2023-04-08T03:41:10.342Z,5.4
2023-04-08T03:42:12.073Z,5.37
2023-04-08T03:43:13.805Z,5.35
2023-04-08T03:44:15.540Z,5.3
2023-04-08T03:45:17.256Z,5.27
2023-04-08T03:46:19.026Z,5.23
2023-04-08T03:47:20.727Z,5.2
2023-04-08T03:48:22.483Z,5.16
2023-04-08T03:49:24.212Z,5.14
2023-04-08T03:50:25.935Z,5.12
2023-04-08T03:51:27.670Z,5.1
2023-04-08T03:52:29.391Z,5.07
2023-04-08T03:53:31.135Z,5.06
2023-04-08T03:54:32.992Z,5.05
2023-04-08T03:55:34.595Z,5.03
2023-04-08T03:56:36.382Z,5.02
2023-04-08T03:57:38.280Z,5
2023-04-08T03:58:39.790Z,4.99
2023-04-08T03:59:41.529Z,4.98
2023-04-08T04:00:43.276Z,4.97
2023-04-08T04:01:45.038Z,4.96
2023-04-08T04:02:46.772Z,4.95
2023-04-08T04:03:48.638Z,4.94
2023-04-08T04:04:50.227Z,4.94
2023-04-08T04:05:52.062Z,4.93
2023-04-08T04:06:53.672Z,4.93
2023-04-08T04:07:55.399Z,4.93
2023-04-08T04:08:57.134Z,4.92
2023-04-08T04:09:58.860Z,4.92
2023-04-08T04:11:00.609Z,4.91
2023-04-08T04:12:02.351Z,4.91
2023-04-08T04:13:04.045Z,4.9
2023-04-08T04:14:05.795Z,4.88
2023-04-08T04:15:07.528Z,4.87
2023-04-08T04:16:09.295Z,4.86
2023-04-08T04:17:11.018Z,4.83
2023-04-08T04:18:12.754Z,4.81
2023-04-08T04:19:14.455Z,4.79
2023-04-08T04:20:16.181Z,4.76
2023-04-08T04:21:17.944Z,4.73
2023-04-08T04:22:19.649Z,4.71
2023-04-08T04:23:21.378Z,4.69
2023-04-08T04:24:23.112Z,4.67
2023-04-08T04:25:24.846Z,4.65
2023-04-08T04:26:26.569Z,4.64
2023-04-08T04:27:28.291Z,4.63
2023-04-08T04:28:30.017Z,4.63
2023-04-08T04:29:31.749Z,4.64
2023-04-08T04:30:51.412Z,4.61
2023-04-08T04:31:55.702Z,4.63
2023-04-08T04:32:57.439Z,4.65
2023-04-08T04:33:59.148Z,4.65
2023-04-08T04:35:00.860Z,4.65
2023-04-08T04:36:02.748Z,4.67
2023-04-08T04:37:04.311Z,4.67
2023-04-08T04:38:06.064Z,4.68
2023-04-08T04:39:07.771Z,4.69
2023-04-08T04:40:09.525Z,4.68
2023-04-08T04:41:11.248Z,4.69
2023-04-08T04:42:13.010Z,4.68
2023-04-08T04:43:14.718Z,4.66
2023-04-08T04:44:16.462Z,4.66
2023-04-08T04:45:18.164Z,4.64
2023-04-08T04:46:20.030Z,4.64
2023-04-08T04:47:21.687Z,4.61
2023-04-08T04:48:23.391Z,4.61
2023-04-08T04:49:25.113Z,4.59
2023-04-08T04:50:26.867Z,4.58
2023-04-08T04:51:28.580Z,4.57
2023-04-08T04:52:30.333Z,4.57
2023-04-08T04:53:32.061Z,4.56
2023-04-08T04:54:33.987Z,4.55
2023-04-08T04:55:36.441Z,4.54
2023-04-08T04:56:37.321Z,4.52
2023-04-08T04:57:38.986Z,4.51
2023-04-08T04:58:40.743Z,4.51
2023-04-08T04:59:42.454Z,4.5
2023-04-08T05:00:44.219Z,4.49
2023-04-08T05:01:46.057Z,4.49
2023-04-08T05:02:47.771Z,4.49
2023-04-08T05:03:49.412Z,4.47
2023-04-08T05:04:51.166Z,4.47
2023-04-08T05:05:52.898Z,4.46
2023-04-08T05:06:54.575Z,4.44
2023-04-08T05:07:56.346Z,4.42
2023-04-08T05:08:58.040Z,4.41
2023-04-08T05:09:59.766Z,4.4
2023-04-08T05:11:01.560Z,4.37
2023-04-08T05:12:03.249Z,4.36
2023-04-08T05:13:04.988Z,4.35
2023-04-08T05:14:06.737Z,4.34
2023-04-08T05:15:08.449Z,4.32
2023-04-08T05:16:10.313Z,4.34
2023-04-08T05:17:11.934Z,4.32
2023-04-08T05:18:13.661Z,4.33
2023-04-08T05:19:15.390Z,4.33
2023-04-08T05:20:17.708Z,4.35
2023-04-08T05:21:18.883Z,4.35
2023-04-08T05:22:20.596Z,4.37
2023-04-08T05:23:22.364Z,4.38
2023-04-08T05:24:24.054Z,4.4
2023-04-08T05:25:25.803Z,4.43
2023-04-08T05:26:27.549Z,4.45
2023-04-08T05:27:29.277Z,4.47
2023-04-08T05:28:31.004Z,4.49
2023-04-08T05:29:32.718Z,4.51
2023-04-08T05:30:34.473Z,4.53
2023-04-08T05:31:36.218Z,4.55
2023-04-08T05:32:37.962Z,4.57
2023-04-08T05:33:39.686Z,4.59
2023-04-08T05:34:41.389Z,4.61
2023-04-08T05:35:43.169Z,4.63
2023-04-08T05:36:44.871Z,4.65
2023-04-08T05:37:46.621Z,4.67
2023-04-08T05:38:48.749Z,4.69
2023-04-08T05:39:50.085Z,4.69
2023-04-08T05:40:51.930Z,4.72
2023-04-08T05:41:53.540Z,4.74
2023-04-08T05:42:55.257Z,4.74
2023-04-08T05:43:57.014Z,4.76
2023-04-08T05:44:58.732Z,4.78
2023-04-08T05:46:00.490Z,4.79
2023-04-08T05:47:02.240Z,4.8
2023-04-08T05:48:03.971Z,4.82
2023-04-08T05:49:05.690Z,4.84
2023-04-08T05:50:07.412Z,4.86
2023-04-08T05:51:09.144Z,4.87
2023-04-08T05:52:10.883Z,4.9
2023-04-08T05:53:12.610Z,4.91
2023-04-08T05:54:14.333Z,4.91
2023-04-08T05:55:16.093Z,4.95
2023-04-08T05:56:17.819Z,4.96
2023-04-08T05:57:19.533Z,4.97
2023-04-08T05:58:21.258Z,5
2023-04-08T05:59:23.008Z,5.02
2023-04-08T06:00:24.728Z,5.03
2023-04-08T06:01:26.469Z,5.04
2023-04-08T06:02:28.374Z,5.06
2023-04-08T06:03:30.069Z,5.07
2023-04-08T06:04:31.771Z,5.08
2023-04-08T06:05:33.413Z,5.09
2023-04-08T06:06:35.349Z,5.1
2023-04-08T06:07:36.863Z,5.12
2023-04-08T06:08:38.624Z,5.14
2023-04-08T06:09:40.334Z,5.15
2023-04-08T06:10:42.060Z,5.16
2023-04-08T06:11:43.830Z,5.17
2023-04-08T06:12:45.572Z,5.2
2023-04-08T06:13:47.276Z,5.21
2023-04-08T06:14:49.025Z,5.23
2023-04-08T06:15:50.751Z,5.24
2023-04-08T06:16:52.534Z,5.25
2023-04-08T06:17:54.261Z,5.27
2023-04-08T06:18:55.950Z,5.29
2023-04-08T06:19:57.673Z,5.3
2023-04-08T06:20:59.413Z,5.33
2023-04-08T06:22:01.485Z,5.34
2023-04-08T06:23:02.866Z,5.36
2023-04-08T06:24:04.589Z,5.38
2023-04-08T06:25:06.386Z,5.39
2023-04-08T06:26:08.095Z,5.41
2023-04-08T06:27:09.788Z,5.44
2023-04-08T06:28:11.522Z,5.45
2023-04-08T06:29:13.304Z,5.49
2023-04-08T06:30:14.979Z,5.51
2023-04-08T06:31:16.864Z,5.54
2023-04-08T06:32:18.485Z,5.57
2023-04-08T06:33:20.190Z,5.6
2023-04-08T06:34:21.922Z,5.62
2023-04-08T06:35:23.705Z,5.65
2023-04-08T06:36:25.391Z,5.67
2023-04-08T06:37:27.134Z,5.7
2023-04-08T06:38:28.906Z,5.73
2023-04-08T06:39:30.622Z,5.75
2023-04-08T06:40:32.320Z,5.78
2023-04-08T06:41:34.087Z,5.8
2023-04-08T06:42:35.806Z,5.83
2023-04-08T06:43:37.955Z,5.86
2023-04-08T06:44:39.283Z,5.9
2023-04-08T06:45:41.092Z,5.95
2023-04-08T06:46:42.728Z,5.98
2023-04-08T06:47:44.560Z,6.02
2023-04-08T06:48:46.180Z,6.07
2023-04-08T06:49:47.941Z,6.12
2023-04-08T06:50:49.668Z,6.16
2023-04-08T06:51:51.429Z,6.22
2023-04-08T06:52:53.140Z,6.27
2023-04-08T06:53:54.843Z,6.32
2023-04-08T06:54:56.593Z,6.37
2023-04-08T06:55:58.335Z,6.41
2023-04-08T06:57:00.099Z,6.48
2023-04-08T06:58:01.830Z,6.52
2023-04-08T06:59:41.582Z,6.59
2023-04-08T07:01:23.000Z,6.72
2023-04-08T07:03:10.248Z,6.81
2023-04-08T07:04:25.780Z,6.91
2023-04-08T07:05:27.457Z,6.98
2023-04-08T07:06:29.198Z,7.1
2023-04-08T07:07:30.932Z,7.21
2023-04-08T07:08:32.650Z,7.36
2023-04-08T07:09:34.385Z,7.46
2023-04-08T07:10:36.130Z,7.58
2023-04-08T07:11:38.164Z,7.74
2023-04-08T07:12:39.599Z,7.9
2023-04-08T07:13:41.353Z,8.04
2023-04-08T07:14:43.068Z,8.21
2023-04-08T07:15:44.799Z,8.37
2023-04-08T07:16:46.607Z,8.41
2023-04-08T07:17:48.284Z,8.47
2023-04-08T07:18:50.583Z,8.48
2023-04-08T07:19:51.956Z,8.57
2023-04-08T07:20:53.471Z,8.63
2023-04-08T07:21:55.225Z,8.68
2023-04-08T07:22:56.948Z,8.81
2023-04-08T07:23:58.696Z,8.96
2023-04-08T07:25:00.392Z,9.14
2023-04-08T07:26:02.136Z,9.24
2023-04-08T07:27:03.862Z,9.41
2023-04-08T07:28:05.608Z,9.46
2023-04-08T07:29:07.334Z,9.69
2023-04-08T07:30:09.075Z,9.92
2023-04-08T07:31:10.921Z,10.13
2023-04-08T07:32:12.786Z,10.32
2023-04-08T07:33:14.269Z,10.42
2023-04-08T07:34:16.022Z,10.68
2023-04-08T07:35:17.786Z,10.92
2023-04-08T07:36:19.492Z,11.17
2023-04-08T07:37:21.227Z,11.28
2023-04-08T07:38:23.000Z,11.42
2023-04-08T07:39:24.685Z,11.41
2023-04-08T07:40:26.413Z,11.3
2023-04-08T07:41:28.154Z,11.34
2023-04-08T07:42:29.885Z,11.25
2023-04-08T07:43:31.632Z,11.15
2023-04-08T07:44:33.361Z,10.99
2023-04-08T07:45:35.084Z,10.84
2023-04-08T07:46:36.913Z,10.73
2023-04-08T07:47:38.597Z,10.61
2023-04-08T07:48:40.302Z,10.48
2023-04-08T07:49:42.036Z,10.37
2023-04-08T07:51:09.092Z,10.26
2023-04-08T07:51:45.486Z,10.17
2023-04-08T07:52:47.237Z,10.05
2023-04-08T07:53:48.959Z,9.95
2023-04-08T07:54:50.694Z,9.85
2023-04-08T07:55:52.458Z,9.76
2023-04-08T07:56:54.164Z,9.64
2023-04-08T07:57:55.898Z,9.58
2023-04-08T07:58:57.778Z,9.52
2023-04-08T07:59:59.356Z,9.47
2023-04-08T08:01:01.112Z,9.4
2023-04-08T08:02:02.876Z,9.3
2023-04-08T08:03:04.758Z,9.31
2023-04-08T08:04:06.559Z,9.26
2023-04-08T08:05:08.068Z,9.22
2023-04-08T08:06:09.762Z,9.21
2023-04-08T08:07:11.511Z,9.15
2023-04-08T08:08:13.360Z,9.14
2023-04-08T08:09:14.974Z,9.14
2023-04-08T08:10:16.698Z,9.14
2023-04-08T08:11:18.498Z,9.13
2023-04-08T08:12:20.175Z,9.13
2023-04-08T08:13:21.899Z,9.13
2023-04-08T08:14:23.627Z,9.16
2023-04-08T08:15:25.363Z,9.15
2023-04-08T08:16:27.294Z,9.15
2023-04-08T08:17:28.866Z,9.11
2023-04-08T08:18:30.573Z,9.14
2023-04-08T08:19:32.311Z,9.15
2023-04-08T08:20:34.154Z,9.16
2023-04-08T08:21:35.808Z,9.2
2023-04-08T08:22:44.353Z,9.22
2023-04-08T08:23:39.227Z,9.25
2023-04-08T08:24:40.978Z,9.3
2023-04-08T08:25:42.712Z,9.32
2023-04-08T08:26:44.445Z,9.33
2023-04-08T08:27:46.171Z,9.33
2023-04-08T08:28:47.904Z,9.35
2023-04-08T08:29:49.639Z,9.38
2023-04-08T08:30:51.389Z,9.4
2023-04-08T08:31:53.111Z,9.41
2023-04-08T08:32:54.877Z,9.43
2023-04-08T08:33:56.590Z,9.43
2023-04-08T08:34:58.308Z,9.48
2023-04-08T08:36:00.153Z,9.48
2023-04-08T08:37:01.787Z,9.51
2023-04-08T08:38:03.516Z,9.56
2023-04-08T08:39:05.259Z,9.57
2023-04-08T08:40:06.994Z,9.59
2023-04-08T08:41:08.722Z,9.6
2023-04-08T08:42:10.495Z,9.59
2023-04-08T08:43:12.210Z,9.61
2023-04-08T08:44:13.927Z,9.65
2023-04-08T08:45:19.625Z,9.68
2023-04-08T08:46:21.373Z,9.7
2023-04-08T08:47:23.160Z,9.69
2023-04-08T08:48:24.823Z,9.74
2023-04-08T08:49:26.552Z,9.75
2023-04-08T08:50:28.284Z,9.74
2023-04-08T08:51:30.028Z,9.77
2023-04-08T08:52:31.767Z,9.83
2023-04-08T08:53:35.860Z,9.85
2023-04-08T08:54:35.393Z,9.87
2023-04-08T08:56:38.718Z,9.91
2023-04-08T08:57:40.410Z,9.96
2023-04-08T08:58:42.153Z,9.98
2023-04-08T08:59:43.878Z,10.02
2023-04-08T09:00:45.621Z,9.98
2023-04-08T09:01:47.443Z,9.98
2023-04-08T09:02:49.376Z,10.03
2023-04-08T09:03:51.268Z,10.06
2023-04-08T09:04:52.699Z,10
2023-04-08T09:05:54.290Z,10.05
2023-04-08T09:06:56.026Z,10.05
2023-04-08T09:07:57.765Z,10.06
2023-04-08T09:08:59.510Z,10.08
2023-04-08T09:10:01.218Z,10.04
2023-04-08T09:11:02.956Z,10.06
2023-04-08T09:12:04.736Z,10.06
2023-04-08T09:13:06.424Z,10.07
2023-04-08T09:14:08.173Z,10.01
2023-04-08T09:15:09.894Z,9.98
2023-04-08T09:16:11.693Z,9.96
2023-04-08T09:17:13.354Z,9.95
2023-04-08T09:18:16.886Z,9.91
2023-04-08T09:19:16.840Z,9.92
2023-04-08T09:20:18.575Z,9.79
2023-04-08T09:21:20.304Z,9.81
2023-04-08T09:22:22.054Z,9.81
2023-04-08T09:23:23.763Z,9.82
2023-04-08T09:24:25.518Z,9.79
2023-04-08T09:25:27.232Z,9.78
2023-04-08T09:26:28.986Z,9.79
2023-04-08T09:27:30.702Z,9.77
2023-04-08T09:28:32.441Z,9.73
2023-04-08T09:29:35.273Z,9.74
2023-04-08T09:30:35.906Z,9.72
2023-04-08T09:31:37.740Z,9.7
2023-04-08T09:32:39.419Z,9.64
2023-04-08T09:33:41.103Z,9.63
2023-04-08T09:34:42.830Z,9.61
2023-04-08T09:35:44.619Z,9.59
2023-04-08T09:36:46.318Z,9.57
2023-04-08T09:37:48.044Z,9.57
2023-04-08T09:38:49.770Z,9.56
2023-04-08T09:39:51.703Z,9.55
2023-04-08T09:40:53.244Z,9.48
2023-04-08T09:41:55.115Z,9.49
2023-04-08T09:42:56.701Z,9.49
2023-04-08T09:43:58.438Z,9.45
2023-04-08T09:45:00.182Z,9.48
2023-04-08T09:46:01.932Z,9.49
2023-04-08T09:47:03.658Z,9.45
2023-04-08T09:48:05.409Z,9.48
2023-04-08T09:49:07.116Z,9.48
2023-04-08T09:50:08.832Z,9.48
2023-04-08T09:51:10.573Z,9.49
2023-04-08T09:52:12.340Z,9.51
2023-04-08T09:53:14.042Z,9.52
2023-04-08T09:54:15.788Z,9.53
2023-04-08T09:55:17.551Z,9.53
2023-04-08T09:56:19.257Z,9.55
2023-04-08T09:57:20.973Z,9.55
2023-04-08T09:58:22.708Z,9.57
2023-04-08T09:59:24.455Z,9.58
2023-04-08T10:00:26.195Z,9.56
2023-04-08T10:01:27.974Z,9.54
2023-04-08T10:02:29.833Z,9.56
2023-04-08T10:03:31.533Z,9.58
2023-04-08T10:04:33.307Z,9.56
2023-04-08T10:05:34.868Z,9.57
2023-04-08T10:06:36.589Z,9.57
2023-04-08T10:07:38.345Z,9.57
2023-04-08T10:08:40.058Z,9.62
2023-04-08T10:09:41.808Z,9.62
2023-04-08T10:10:43.518Z,9.6
2023-04-08T10:11:45.272Z,9.63
2023-04-08T10:12:46.994Z,9.66
2023-04-08T10:13:48.867Z,9.7
2023-04-08T10:14:50.464Z,9.73
2023-04-08T10:15:52.184Z,9.75
2023-04-08T10:16:53.946Z,9.79
2023-04-08T10:17:55.684Z,9.84
2023-04-08T10:18:57.420Z,9.89
2023-04-08T10:19:59.122Z,9.91
2023-04-08T10:21:00.865Z,9.96
2023-04-08T10:22:02.593Z,10
2023-04-08T10:23:04.331Z,10.05
2023-04-08T10:24:06.061Z,10.03
2023-04-08T10:25:07.800Z,10.03
2023-04-08T10:26:09.529Z,9.95
2023-04-08T10:27:11.257Z,10.04
2023-04-08T10:28:13.018Z,10.06
2023-04-08T10:29:14.728Z,10.07
2023-04-08T10:30:16.537Z,10.05
2023-04-08T10:31:18.288Z,10.06
2023-04-08T10:32:19.980Z,10.06
2023-04-08T10:33:21.673Z,10.05
2023-04-08T10:34:23.397Z,10.05
2023-04-08T10:35:25.193Z,10.06
2023-04-08T10:36:26.892Z,10.04
2023-04-08T10:37:28.606Z,10.07
2023-04-08T10:38:30.350Z,10.05
2023-04-08T10:39:32.067Z,10.05
2023-04-08T10:40:33.797Z,10.06
2023-04-08T10:41:35.550Z,10.05
2023-04-08T10:42:37.381Z,10.03
2023-04-08T10:43:38.997Z,10.01
2023-04-08T10:44:40.729Z,9.97
2023-04-08T10:45:42.518Z,10
2023-04-08T10:46:44.232Z,9.97
2023-04-08T10:47:46.003Z,9.97
2023-04-08T10:48:47.692Z,9.96
2023-04-08T10:49:49.412Z,9.94
2023-04-08T10:50:51.139Z,9.94
2023-04-08T10:51:52.886Z,9.93
2023-04-08T10:52:54.599Z,9.91
2023-04-08T10:53:56.346Z,9.82
2023-04-08T11:04:47.408Z,9.87
2023-04-08T11:05:49.930Z,9.9
2023-04-08T11:06:51.647Z,9.92
2023-04-08T11:07:53.439Z,9.97
2023-04-08T11:08:55.186Z,10.02
2023-04-08T11:09:56.854Z,10.06
2023-04-08T11:10:58.542Z,10.11
2023-04-08T11:12:00.280Z,10.16
2023-04-08T11:13:02.001Z,10.15
2023-04-08T11:14:03.925Z,10.24
2023-04-08T11:15:05.502Z,10.29
2023-04-08T11:16:17.065Z,10.35
2023-04-08T11:17:08.982Z,10.38
2023-04-08T11:18:10.726Z,10.43
2023-04-08T11:19:12.417Z,10.48
2023-04-08T11:20:14.180Z,10.53
2023-04-08T11:21:15.885Z,10.59
2023-04-08T11:22:17.633Z,10.68
2023-04-08T11:23:19.349Z,10.77
2023-04-08T11:24:21.082Z,10.86
2023-04-08T11:25:22.852Z,10.94
2023-04-08T11:26:24.579Z,10.92
2023-04-08T11:27:26.308Z,10.91
2023-04-08T11:28:28.181Z,10.97
2023-04-08T11:29:29.762Z,11.03
2023-04-08T11:30:31.500Z,11.04
2023-04-08T11:31:33.268Z,11.06
2023-04-08T11:32:35.025Z,11.12
2023-04-08T11:33:36.771Z,11.16
2023-04-08T11:34:38.449Z,11.19
2023-04-08T11:35:40.250Z,11.19
2023-04-08T11:36:42.053Z,11.13
2023-04-08T11:37:43.674Z,11.18
2023-04-08T11:38:45.386Z,11.08
2023-04-08T11:39:47.089Z,11.08
2023-04-08T11:40:48.839Z,11.09
2023-04-08T11:41:50.567Z,11.05
2023-04-08T11:42:52.360Z,11.1
2023-04-08T11:43:54.029Z,11.14
2023-04-08T11:44:55.774Z,11.08
2023-04-08T11:45:57.560Z,11.08
2023-04-08T11:46:59.258Z,11.11
2023-04-08T11:48:01.918Z,11.18
2023-04-08T11:49:02.830Z,11.19
2023-04-08T11:50:04.523Z,11.19
2023-04-08T11:51:06.220Z,11.23
2023-04-08T11:52:07.919Z,11.3
2023-04-08T11:53:09.654Z,11.37
2023-04-08T11:54:11.374Z,11.45
2023-04-08T11:55:13.100Z,11.52
2023-04-08T11:56:14.899Z,11.58
2023-04-08T11:57:16.605Z,11.63
2023-04-08T11:58:18.359Z,11.63
2023-04-08T11:59:20.036Z,11.69
2023-04-08T12:00:21.900Z,11.73
2023-04-08T12:01:23.529Z,11.84
2023-04-08T12:02:25.390Z,11.87
2023-04-08T12:03:27.109Z,11.96
2023-04-08T12:04:28.912Z,11.99
2023-04-08T12:05:30.499Z,12.1
2023-04-08T12:06:32.300Z,12.27
2023-04-08T12:07:33.918Z,12.4
2023-04-08T12:08:35.758Z,12.48
2023-04-08T12:09:37.377Z,12.5
2023-04-08T12:10:39.273Z,12.6
2023-04-08T12:11:40.889Z,12.61
2023-04-08T12:12:42.786Z,12.62
2023-04-08T12:13:44.487Z,12.71
2023-04-08T12:14:46.056Z,12.73
2023-04-08T12:15:47.903Z,12.71
2023-04-08T12:16:49.701Z,12.78
2023-04-08T12:17:51.352Z,12.85
2023-04-08T12:18:53.011Z,13.05
2023-04-08T12:19:54.705Z,13.18
2023-04-08T12:20:56.459Z,13.24
2023-04-08T12:21:58.210Z,13.28
2023-04-08T12:22:59.928Z,13.34
2023-04-08T12:24:01.692Z,13.19
2023-04-08T12:25:03.390Z,13.27
2023-04-08T12:26:05.163Z,13.29
2023-04-08T12:27:06.844Z,13.36
2023-04-08T12:28:08.581Z,13.29
2023-04-08T12:29:10.325Z,13.38
2023-04-08T12:30:12.161Z,13.3
2023-04-08T12:31:13.817Z,13.35
2023-04-08T12:32:15.551Z,13.35
2023-04-08T12:33:17.248Z,13.44
2023-04-08T12:34:19.011Z,13.48
2023-04-08T12:35:20.735Z,13.5
2023-04-08T12:36:22.511Z,13.51
2023-04-08T12:37:24.193Z,13.44
2023-04-08T12:38:25.934Z,13.51
2023-04-08T12:39:27.665Z,13.5
2023-04-08T12:40:29.420Z,13.51
2023-04-08T12:41:31.144Z,13.51
2023-04-08T12:42:32.884Z,13.53
2023-04-08T12:43:34.590Z,13.49
2023-04-08T12:44:36.343Z,13.42
2023-04-08T12:45:38.086Z,13.43
2023-04-08T12:46:39.859Z,13.42
2023-04-08T12:47:41.552Z,13.43
2023-04-08T12:48:43.809Z,13.39
2023-04-08T12:50:46.756Z,13.4
2023-04-08T12:51:48.473Z,13.38
2023-04-08T12:52:50.236Z,13.32
2023-04-08T12:53:51.940Z,13.34
2023-04-08T12:54:53.684Z,13.41
2023-04-08T12:55:55.413Z,13.47
2023-04-08T12:56:57.152Z,13.41
2023-04-08T12:57:58.866Z,13.44
2023-04-08T12:59:00.614Z,13.34
2023-04-08T13:00:02.410Z,13.34
2023-04-08T13:01:04.210Z,13.43
2023-04-08T13:02:05.884Z,13.47
2023-04-08T13:03:07.731Z,13.48
2023-04-08T13:04:09.410Z,13.48
2023-04-08T13:05:11.099Z,13.45
2023-04-08T13:06:12.773Z,13.41
2023-04-08T13:07:14.521Z,13.38
2023-04-08T13:08:16.302Z,13.36
2023-04-08T13:09:17.959Z,13.29
2023-04-08T13:10:19.712Z,13.22
2023-04-08T13:11:21.476Z,13.17
2023-04-08T13:12:23.302Z,13.06
2023-04-08T13:13:25.054Z,13.04
2023-04-08T13:14:26.633Z,12.93
2023-04-08T13:15:28.394Z,12.96
2023-04-08T13:16:30.231Z,12.91
2023-04-08T13:17:31.861Z,12.9
2023-04-08T13:18:33.573Z,12.86
2023-04-08T13:19:35.303Z,12.86
2023-04-08T13:20:37.049Z,12.84
2023-04-08T13:21:38.775Z,12.71
2023-04-08T13:22:40.542Z,12.76
2023-04-08T13:23:42.224Z,12.77
2023-04-08T13:24:43.995Z,12.58
2023-04-08T13:25:45.748Z,12.52
2023-04-08T13:26:47.491Z,12.45
2023-04-08T13:27:49.359Z,12.51
2023-04-08T13:28:57.165Z,12.49
2023-04-08T13:29:52.629Z,12.46
2023-04-08T13:30:54.382Z,12.48
2023-04-08T13:31:56.175Z,12.4
2023-04-08T13:32:57.895Z,12.38
2023-04-08T13:33:59.594Z,12.42
2023-04-08T13:35:01.302Z,12.4
2023-04-08T13:36:03.079Z,12.45
2023-04-08T13:37:04.786Z,12.44
2023-04-08T13:38:06.517Z,12.41
2023-04-08T13:39:08.267Z,12.45
2023-04-08T13:40:09.987Z,12.46
2023-04-08T13:41:11.709Z,12.46
2023-04-08T13:42:13.467Z,12.45
2023-04-08T13:43:15.185Z,12.38
2023-04-08T13:44:17.067Z,12.39
2023-04-08T13:45:18.642Z,12.35
2023-04-08T13:46:20.396Z,12.4
2023-04-08T13:47:22.319Z,12.44
2023-04-08T13:48:23.849Z,12.42
2023-04-08T13:49:25.602Z,12.33
2023-04-08T13:50:27.300Z,12.23
2023-04-08T13:51:29.037Z,12.3
2023-04-08T13:52:30.813Z,12.26